Great Ocean — 3FDA5 — position and weather

sailwx.info

Track history (hours):
 
Tides and Currents Weather Stations Pressure Air Temp Water Temp Dewpoint Dewpoint Depression Visibility Wind Speed Wind Dir Waves Ship Positions

Great Ocean

Last reported at 2018-Apr-20 12:09 UTC. Time now 2018-Apr-27 02:58 UTC.
Position S 36°08' E 174°57'.

Length 180 m; draft 10.6 m.

Type: Cargo ship. MMSI: 371452000.

Date/timePositionNaut miles runAvg speedWind from/ knotsBaromVisibWave heightAir tempDewpointWater temp
2018-Apr-20 12:09S 36°08' E 174°57'212.2
2018-Apr-20 11:57S 36°11' E 174°58'512.2
2018-Apr-20 11:31S 36°16' E 174°59'612.0
2018-Apr-20 11:00S 36°22' E 175°00'612.1
2018-Apr-20 10:30S 36°28' E 174°59'612.1
2018-Apr-20 10:00S 36°34' E 174°58'611.7
2018-Apr-20 09:30S 36°39' E 174°55'611.5
2018-Apr-20 09:00S 36°44' E 174°51'4 8.7
2018-Apr-20 08:30S 36°48' E 174°49'3 5.5
2018-Apr-20 08:00S 36°50' E 174°47'1 0.2
2018-Apr-20 01:52S 36°50' E 174°46'0 0.5
2018-Apr-20 01:30S 36°50' E 174°46'2 4.0
2018-Apr-20 01:00S 36°50' E 174°48'4 6.8
2018-Apr-20 00:27S 36°46' E 174°49'4 8.2
2018-Apr-20 00:00S 36°44' E 174°51'1 2.5
2018-Apr-19 23:28S 36°43' E 174°53'0 0.1
2018-Apr-19 22:58S 36°43' E 174°53'0 0.0
2018-Apr-19 22:22S 36°43' E 174°53'0 0.0
2018-Apr-19 21:58S 36°43' E 174°53'0 0.1
2018-Apr-19 21:28S 36°43' E 174°53'0 0.0
2018-Apr-19 20:58S 36°43' E 174°53'0 0.1
2018-Apr-19 20:28S 36°43' E 174°53'0 0.2
2018-Apr-19 19:58S 36°43' E 174°53'0 0.2
2018-Apr-19 19:22S 36°43' E 174°53'0 0.0
2018-Apr-19 19:00S 36°43' E 174°53'0 0.3
2018-Apr-19 18:30S 36°43' E 174°53'0 0.6
2018-Apr-19 18:00S 36°43' E 174°53'2 4.3
2018-Apr-19 17:30S 36°41' E 174°54'611.4
2018-Apr-19 17:00S 36°36' E 174°58'612.3
2018-Apr-19 16:30S 36°30' E 174°59'612.4
2018-Apr-19 16:00S 36°24' E 174°60'611.1
2018-Apr-19 15:30S 36°18' E 174°58'1112.7
2018-Apr-19 14:36S 36°09' E 174°49'212.6
2018-Apr-19 14:29S 36°08' E 174°48'  
2018-Apr-15 20:02S 36°03' E 174°40'112.0
2018-Apr-15 19:59S 36°03' E 174°41'611.7
2018-Apr-15 19:30S 36°07' E 174°46'811.8
2018-Apr-15 18:51S 36°13' E 174°53'511.7
2018-Apr-15 18:28S 36°16' E 174°57'511.4
2018-Apr-15 18:00S 36°19' E 175°02'611.7
2018-Apr-15 17:30S 36°21' E 175°09'612.0
2018-Apr-15 17:00S 36°22' E 175°16'1512.4
2018-Apr-15 15:47S 36°26' E 175°34'412.4
2018-Apr-15 15:29S 36°27' E 175°39'  
2018-Apr-11 00:16S 46°34' E 169°48'412.3
2018-Apr-10 23:55S 46°36' E 169°43'512.7
2018-Apr-10 23:30S 46°40' E 169°37'612.3
2018-Apr-10 23:00S 46°43' E 169°30'612.6
2018-Apr-10 22:30S 46°47' E 169°22'612.2
2018-Apr-10 22:00S 46°50' E 169°15'612.1
2018-Apr-10 21:30S 46°54' E 169°08'5 9.8
2018-Apr-10 21:00S 46°52' E 169°01'5 9.8
2018-Apr-10 20:30S 46°49' E 168°55'5 9.6
2018-Apr-10 20:00S 46°46' E 168°50'5 9.2
2018-Apr-10 19:30S 46°43' E 168°44'5 9.7
2018-Apr-10 19:00S 46°41' E 168°38'611.3
2018-Apr-10 18:30S 46°41' E 168°29'510.8
2018-Apr-10 18:00S 46°40' E 168°22'4 8.0
2018-Apr-10 17:30S 46°36' E 168°21'1 2.0
2018-Apr-10 16:59S 46°36' E 168°20'0 0.0
2018-Apr-10 16:25S 46°36' E 168°20'0 0.0
2018-Apr-10 15:58S 46°36' E 168°20'0 0.0
2018-Apr-10 15:28S 46°36' E 168°20'0 0.0
2018-Apr-10 14:58S 46°36' E 168°20'0 0.0
2018-Apr-10 14:28S 46°36' E 168°20'0 0.0
2018-Apr-10 13:59S 46°36' E 168°20'0 0.0
2018-Apr-10 13:29S 46°36' E 168°20'0 0.0
2018-Apr-10 12:59S 46°36' E 168°20'0 0.0
2018-Apr-10 12:28S 46°36' E 168°20'  
Track history (hours):
 
Tides and Currents Weather Stations Pressure Air Temp Water Temp Dewpoint Dewpoint Depression Visibility Wind Speed Wind Dir Waves Ship Positions

Great Ocean

Last reported at 2018-Apr-20 12:09 UTC. Time now 2018-Apr-27 02:58 UTC.
Position S 36°08' E 174°57'.

Length 180 m; draft 10.6 m.

Type: Cargo ship. MMSI: 371452000.

Date/timePositionNaut miles runAvg speedWind from/ knotsBaromVisibWave heightAir tempDewpointWater temp
2018-Apr-20 12:09S 36°08' E 174°57'212.2
2018-Apr-20 11:57S 36°11' E 174°58'512.2
2018-Apr-20 11:31S 36°16' E 174°59'612.0
2018-Apr-20 11:00S 36°22' E 175°00'612.1
2018-Apr-20 10:30S 36°28' E 174°59'612.1
2018-Apr-20 10:00S 36°34' E 174°58'611.7
2018-Apr-20 09:30S 36°39' E 174°55'611.5
2018-Apr-20 09:00S 36°44' E 174°51'4 8.7
2018-Apr-20 08:30S 36°48' E 174°49'3 5.5
2018-Apr-20 08:00S 36°50' E 174°47'1 0.2
2018-Apr-20 01:52S 36°50' E 174°46'0 0.5
2018-Apr-20 01:30S 36°50' E 174°46'2 4.0
2018-Apr-20 01:00S 36°50' E 174°48'4 6.8
2018-Apr-20 00:27S 36°46' E 174°49'4 8.2
2018-Apr-20 00:00S 36°44' E 174°51'1 2.5
2018-Apr-19 23:28S 36°43' E 174°53'0 0.1
2018-Apr-19 22:58S 36°43' E 174°53'0 0.0
2018-Apr-19 22:22S 36°43' E 174°53'0 0.0
2018-Apr-19 21:58S 36°43' E 174°53'0 0.1
2018-Apr-19 21:28S 36°43' E 174°53'0 0.0
2018-Apr-19 20:58S 36°43' E 174°53'0 0.1
2018-Apr-19 20:28S 36°43' E 174°53'0 0.2
2018-Apr-19 19:58S 36°43' E 174°53'0 0.2
2018-Apr-19 19:22S 36°43' E 174°53'0 0.0
2018-Apr-19 19:00S 36°43' E 174°53'0 0.3
2018-Apr-19 18:30S 36°43' E 174°53'0 0.6
2018-Apr-19 18:00S 36°43' E 174°53'2 4.3
2018-Apr-19 17:30S 36°41' E 174°54'611.4
2018-Apr-19 17:00S 36°36' E 174°58'612.3
2018-Apr-19 16:30S 36°30' E 174°59'612.4
2018-Apr-19 16:00S 36°24' E 174°60'611.1
2018-Apr-19 15:30S 36°18' E 174°58'1112.7
2018-Apr-19 14:36S 36°09' E 174°49'212.6
2018-Apr-19 14:29S 36°08' E 174°48'  
2018-Apr-15 20:02S 36°03' E 174°40'112.0
2018-Apr-15 19:59S 36°03' E 174°41'611.7
2018-Apr-15 19:30S 36°07' E 174°46'811.8
2018-Apr-15 18:51S 36°13' E 174°53'511.7
2018-Apr-15 18:28S 36°16' E 174°57'511.4
2018-Apr-15 18:00S 36°19' E 175°02'611.7
2018-Apr-15 17:30S 36°21' E 175°09'612.0
2018-Apr-15 17:00S 36°22' E 175°16'1512.4
2018-Apr-15 15:47S 36°26' E 175°34'412.4
2018-Apr-15 15:29S 36°27' E 175°39'  
2018-Apr-11 00:16S 46°34' E 169°48'412.3
2018-Apr-10 23:55S 46°36' E 169°43'512.7
2018-Apr-10 23:30S 46°40' E 169°37'612.3
2018-Apr-10 23:00S 46°43' E 169°30'612.6
2018-Apr-10 22:30S 46°47' E 169°22'612.2
2018-Apr-10 22:00S 46°50' E 169°15'612.1
2018-Apr-10 21:30S 46°54' E 169°08'5 9.8
2018-Apr-10 21:00S 46°52' E 169°01'5 9.8
2018-Apr-10 20:30S 46°49' E 168°55'5 9.6
2018-Apr-10 20:00S 46°46' E 168°50'5 9.2
2018-Apr-10 19:30S 46°43' E 168°44'5 9.7
2018-Apr-10 19:00S 46°41' E 168°38'611.3
2018-Apr-10 18:30S 46°41' E 168°29'510.8
2018-Apr-10 18:00S 46°40' E 168°22'4 8.0
2018-Apr-10 17:30S 46°36' E 168°21'1 2.0
2018-Apr-10 16:59S 46°36' E 168°20'0 0.0
2018-Apr-10 16:25S 46°36' E 168°20'0 0.0
2018-Apr-10 15:58S 46°36' E 168°20'0 0.0
2018-Apr-10 15:28S 46°36' E 168°20'0 0.0
2018-Apr-10 14:58S 46°36' E 168°20'0 0.0
2018-Apr-10 14:28S 46°36' E 168°20'0 0.0
2018-Apr-10 13:59S 46°36' E 168°20'0 0.0
2018-Apr-10 13:29S 46°36' E 168°20'0 0.0
2018-Apr-10 12:59S 46°36' E 168°20'0 0.0
2018-Apr-10 12:28S 46°36' E 168°20'  

Dump ship's entire track history